createdAt,value
2024-03-19T00:02:13.295Z,9.81
2024-03-19T00:04:45.945Z,9.84
2024-03-19T00:07:15.298Z,9.86
2024-03-19T00:09:44.561Z,9.88
2024-03-19T00:12:13.997Z,9.88
2024-03-19T00:14:45.502Z,9.87
2024-03-19T00:17:14.915Z,9.88
2024-03-19T00:19:44.268Z,9.92
2024-03-19T00:22:13.607Z,9.92
2024-03-19T00:24:44.314Z,9.94
2024-03-19T00:27:13.700Z,9.98
2024-03-19T00:29:45.435Z,10.01
2024-03-19T00:32:14.771Z,10.01
2024-03-19T00:34:44.338Z,10.01
2024-03-19T00:37:16.102Z,10.04
2024-03-19T00:39:45.454Z,10.06
2024-03-19T00:42:14.833Z,10.08
2024-03-19T00:44:46.449Z,10.09
2024-03-19T00:47:17.908Z,10.06
2024-03-19T00:49:47.325Z,10.02
2024-03-19T00:52:19.141Z,9.97
2024-03-19T00:54:48.634Z,9.92
2024-03-19T00:57:18.140Z,9.90
2024-03-19T00:59:47.991Z,9.88
2024-03-19T01:02:18.125Z,9.88
2024-03-19T01:07:23.251Z,9.86
2024-03-19T01:09:57.782Z,9.85
2024-03-19T01:12:27.214Z,9.84
2024-03-19T01:14:56.840Z,9.84
2024-03-19T01:17:26.220Z,9.86
2024-03-19T01:19:55.553Z,9.87
2024-03-19T01:22:27.766Z,9.89
2024-03-19T01:24:57.151Z,9.92
2024-03-19T01:27:26.513Z,9.93
2024-03-19T01:29:58.246Z,9.94
2024-03-19T01:32:27.737Z,9.96
2024-03-19T01:34:57.065Z,9.95
2024-03-19T01:37:26.389Z,9.93
2024-03-19T01:39:55.716Z,9.91
2024-03-19T01:42:27.649Z,9.92
2024-03-19T01:45:12.445Z,9.94
2024-03-19T01:47:45.053Z,9.97
2024-03-19T01:50:15.587Z,9.99
2024-03-19T01:52:48.559Z,10.01
2024-03-19T01:55:18.797Z,10.04
2024-03-19T01:57:50.959Z,10.05
2024-03-19T02:00:22.709Z,10.05
2024-03-19T02:02:52.200Z,10.06
2024-03-19T02:05:21.543Z,10.09
2024-03-19T02:07:50.924Z,10.12
2024-03-19T02:10:22.466Z,10.16
2024-03-19T02:12:54.423Z,10.20
2024-03-19T02:15:23.764Z,10.23
2024-03-19T02:17:55.419Z,10.26
2024-03-19T02:20:28.002Z,10.26
2024-03-19T02:22:57.313Z,10.25
2024-03-19T02:25:27.297Z,10.25
2024-03-19T02:27:58.228Z,10.27
2024-03-19T02:30:27.793Z,10.30
2024-03-19T02:32:59.507Z,10.32
2024-03-19T02:35:28.942Z,10.34
2024-03-19T02:37:58.302Z,10.34
2024-03-19T02:40:27.715Z,10.34
2024-03-19T02:42:57.034Z,10.33
2024-03-19T02:45:28.999Z,10.31
2024-03-19T02:48:00.576Z,10.29
2024-03-19T02:50:30.427Z,10.29
2024-03-19T02:53:02.095Z,10.30
2024-03-19T02:55:32.511Z,10.32
2024-03-19T02:58:01.820Z,10.36
2024-03-19T03:00:31.205Z,10.38
2024-03-19T03:03:00.643Z,10.39
2024-03-19T03:05:32.476Z,10.37
2024-03-19T03:08:04.578Z,10.34
2024-03-19T03:10:34.250Z,10.30
2024-03-19T03:13:06.885Z,10.29
2024-03-19T03:15:36.330Z,10.28
2024-03-19T03:18:06.802Z,10.31
2024-03-19T03:20:36.327Z,10.31
2024-03-19T03:23:08.666Z,10.33
2024-03-19T03:25:39.194Z,10.35
2024-03-19T03:28:09.074Z,10.36
2024-03-19T03:30:38.783Z,10.37
2024-03-19T03:33:12.815Z,10.35
2024-03-19T03:35:43.856Z,10.36
2024-03-19T03:38:13.278Z,10.39
2024-03-19T03:40:45.328Z,10.42
2024-03-19T03:43:14.684Z,10.44
2024-03-19T03:45:48.730Z,10.45
2024-03-19T03:48:18.740Z,10.47
2024-03-19T03:50:48.088Z,10.46
2024-03-19T03:53:19.574Z,10.46
2024-03-19T03:55:48.838Z,10.45
2024-03-19T03:58:18.201Z,10.48
2024-03-19T04:00:48.471Z,10.50
2024-03-19T04:03:18.248Z,10.53
2024-03-19T04:05:50.012Z,10.56
2024-03-19T04:08:21.521Z,10.57
2024-03-19T04:10:51.072Z,10.58
2024-03-19T04:13:20.470Z,10.59
2024-03-19T04:15:51.956Z,10.60
2024-03-19T04:18:23.459Z,10.58
2024-03-19T04:20:53.288Z,10.57
2024-03-19T04:23:22.663Z,10.58
2024-03-19T04:25:52.028Z,10.60
2024-03-19T04:28:21.385Z,10.62
2024-03-19T04:30:50.842Z,10.61
2024-03-19T04:33:20.276Z,10.58
2024-03-19T04:35:49.568Z,10.56
2024-03-19T04:38:21.307Z,10.53
2024-03-19T04:40:52.828Z,10.53
2024-03-19T04:43:24.341Z,10.53
2024-03-19T04:45:56.079Z,10.53
2024-03-19T04:48:25.542Z,10.55
2024-03-19T04:50:55.308Z,10.57
2024-03-19T04:53:24.695Z,10.57
2024-03-19T04:55:54.392Z,10.57
2024-03-19T04:58:23.799Z,10.58
2024-03-19T05:00:55.440Z,10.59
2024-03-19T05:03:24.940Z,10.60
2024-03-19T05:05:54.391Z,10.63
2024-03-19T05:08:24.030Z,10.63
2024-03-19T05:10:55.588Z,10.63
2024-03-19T05:13:25.170Z,10.63
2024-03-19T05:15:56.793Z,10.62
2024-03-19T05:18:26.487Z,10.64
2024-03-19T05:20:56.060Z,10.63
2024-03-19T05:23:30.275Z,10.64
2024-03-19T05:25:59.796Z,10.65
2024-03-19T05:28:31.474Z,10.68
2024-03-19T05:31:00.858Z,10.70
2024-03-19T05:33:30.233Z,10.72
2024-03-19T05:35:59.485Z,10.75
2024-03-19T05:38:28.805Z,10.76
2024-03-19T05:40:58.231Z,10.77
2024-03-19T05:43:30.690Z,10.77
2024-03-19T05:46:02.483Z,10.76
2024-03-19T05:48:33.177Z,10.74
2024-03-19T05:51:05.335Z,10.76
2024-03-19T05:53:37.163Z,10.77
2024-03-19T05:56:09.469Z,10.78
2024-03-19T05:58:40.916Z,10.80
2024-03-19T06:01:10.322Z,10.83
2024-03-19T06:03:43.889Z,10.83
2024-03-19T06:06:18.182Z,10.84
2024-03-19T06:08:49.486Z,10.83
2024-03-19T06:11:18.844Z,10.82
2024-03-19T06:13:48.199Z,10.79
2024-03-19T06:16:18.256Z,10.77
2024-03-19T06:18:50.508Z,10.77
2024-03-19T06:21:19.996Z,10.78
2024-03-19T06:23:51.382Z,10.80
2024-03-19T06:26:20.897Z,10.81
2024-03-19T06:28:50.223Z,10.81
2024-03-19T06:31:19.661Z,10.80
2024-03-19T06:33:49.484Z,10.80
2024-03-19T06:36:19.184Z,10.81
2024-03-19T06:38:50.944Z,10.81
2024-03-19T06:41:22.857Z,10.83
2024-03-19T06:43:52.213Z,10.86
2024-03-19T06:46:21.547Z,10.88
2024-03-19T06:48:50.950Z,10.90
2024-03-19T06:51:20.317Z,10.92
2024-03-19T06:53:51.920Z,10.95
2024-03-19T06:56:21.293Z,11.02
2024-03-19T06:58:50.657Z,11.08
2024-03-19T07:01:20.117Z,11.15
2024-03-19T07:03:59.817Z,11.21
2024-03-19T07:06:33.430Z,11.30
2024-03-19T07:09:02.814Z,11.37
2024-03-19T07:11:33.052Z,11.42
2024-03-19T07:14:06.032Z,11.46
2024-03-19T07:16:35.429Z,11.49
2024-03-19T07:19:04.884Z,11.56
2024-03-19T07:21:34.281Z,11.62
2024-03-19T07:24:03.859Z,11.66
2024-03-19T07:26:33.227Z,11.69
2024-03-19T07:29:04.934Z,11.71
2024-03-19T07:31:34.367Z,11.74
2024-03-19T07:34:03.832Z,11.76
2024-03-19T07:36:37.048Z,11.77
2024-03-19T07:39:12.888Z,11.79
2024-03-19T07:41:44.722Z,11.82
2024-03-19T07:44:16.295Z,11.87
2024-03-19T07:46:45.771Z,11.91
2024-03-19T07:49:15.539Z,11.95
2024-03-19T07:51:45.039Z,12.02
2024-03-19T07:54:14.450Z,12.06
2024-03-19T07:56:45.141Z,12.09
2024-03-19T07:59:19.075Z,12.14
2024-03-19T08:01:50.268Z,12.18
2024-03-19T08:04:21.546Z,12.27
2024-03-19T08:06:51.547Z,12.34
2024-03-19T08:09:21.348Z,12.40
2024-03-19T08:11:50.716Z,12.44
2024-03-19T08:14:20.143Z,12.52
2024-03-19T08:16:49.782Z,12.60
2024-03-19T08:19:21.729Z,12.67
2024-03-19T08:21:51.216Z,12.69
2024-03-19T08:24:20.584Z,12.73
2024-03-19T08:26:50.084Z,12.78
2024-03-19T08:29:21.873Z,12.85
2024-03-19T08:31:51.307Z,12.94
2024-03-19T08:34:20.641Z,13.02
2024-03-19T08:36:50.019Z,13.11
2024-03-19T08:39:19.858Z,13.19
2024-03-19T08:41:49.856Z,13.27
2024-03-19T08:44:21.600Z,13.35
2024-03-19T08:46:53.305Z,13.41
2024-03-19T08:49:22.958Z,13.47
2024-03-19T08:51:52.465Z,13.52
2024-03-19T08:54:22.006Z,13.56
2024-03-19T08:56:52.633Z,13.62
2024-03-19T08:59:22.103Z,13.66
2024-03-19T09:01:51.553Z,13.68
2024-03-19T09:04:21.052Z,13.70
2024-03-19T09:06:50.432Z,13.73
2024-03-19T09:09:19.853Z,13.75
2024-03-19T09:11:52.750Z,13.77
2024-03-19T09:14:22.318Z,13.79
2024-03-19T09:16:51.667Z,13.80
2024-03-19T09:19:25.367Z,13.82
2024-03-19T09:21:55.565Z,13.87
2024-03-19T09:24:24.927Z,13.91
2024-03-19T09:26:56.666Z,13.97
2024-03-19T09:29:26.085Z,14.05
2024-03-19T09:31:55.550Z,14.11
2024-03-19T09:34:24.961Z,14.18
2024-03-19T09:36:54.346Z,14.24
2024-03-19T09:39:23.696Z,14.28
2024-03-19T09:42:03.308Z,14.33
2024-03-19T09:44:33.272Z,14.38
2024-03-19T09:47:05.155Z,14.40
2024-03-19T09:49:37.819Z,14.42
2024-03-19T09:52:08.237Z,14.45
2024-03-19T09:54:38.688Z,14.49
2024-03-19T09:57:18.777Z,14.53
2024-03-19T09:59:48.470Z,14.59
2024-03-19T10:02:21.836Z,14.71
2024-03-19T10:04:51.341Z,14.81
2024-03-19T10:07:22.284Z,14.86
2024-03-19T10:09:55.690Z,14.90
2024-03-19T10:12:25.450Z,14.91
2024-03-19T10:14:56.036Z,14.92
2024-03-19T10:17:26.376Z,14.95
2024-03-19T10:19:57.752Z,14.95
2024-03-19T10:22:29.053Z,14.96
2024-03-19T10:24:58.546Z,14.95
2024-03-19T10:27:28.417Z,14.93
2024-03-19T10:30:00.764Z,14.93
2024-03-19T10:32:33.588Z,14.94
2024-03-19T10:35:07.064Z,14.94
2024-03-19T10:37:40.174Z,14.96
2024-03-19T10:40:13.893Z,15.02
2024-03-19T10:42:45.819Z,15.11
2024-03-19T10:45:18.837Z,15.19
2024-03-19T10:47:51.991Z,15.27
2024-03-19T10:50:23.223Z,15.33
2024-03-19T10:52:59.973Z,15.38
2024-03-19T10:55:31.525Z,15.42
2024-03-19T10:58:07.733Z,15.47
2024-03-19T11:00:43.047Z,15.51
2024-03-19T11:03:21.798Z,15.52
2024-03-19T11:05:55.347Z,15.56
2024-03-19T11:08:30.256Z,15.58
2024-03-19T11:11:09.741Z,15.62
2024-03-19T11:13:39.297Z,15.66
2024-03-19T11:16:20.584Z,15.68
2024-03-19T11:18:56.186Z,15.69
2024-03-19T11:21:28.636Z,15.68
2024-03-19T11:23:58.277Z,15.71
2024-03-19T11:26:29.392Z,15.76
2024-03-19T11:29:05.683Z,15.82
2024-03-19T11:31:44.348Z,15.83
2024-03-19T11:34:16.317Z,15.86
2024-03-19T11:36:49.689Z,15.88
2024-03-19T11:39:19.920Z,15.88
2024-03-19T11:41:50.990Z,15.88
2024-03-19T11:44:25.820Z,15.92
2024-03-19T11:46:55.515Z,15.94
2024-03-19T11:49:30.540Z,15.98
2024-03-19T11:52:01.372Z,16.01
2024-03-19T11:54:32.747Z,16.07
2024-03-19T11:57:04.691Z,16.14
2024-03-19T11:59:36.396Z,16.18
2024-03-19T12:02:12.965Z,16.22
2024-03-19T12:04:42.234Z,16.24
2024-03-19T12:07:14.186Z,16.24
2024-03-19T12:09:43.513Z,16.25
2024-03-19T12:12:14.655Z,16.27
2024-03-19T12:14:45.688Z,16.31
2024-03-19T12:17:15.948Z,16.34
2024-03-19T12:19:45.354Z,16.38
2024-03-19T12:22:17.657Z,16.39
2024-03-19T12:24:52.193Z,16.39
2024-03-19T12:27:26.624Z,16.40
2024-03-19T12:29:59.300Z,16.41
2024-03-19T12:32:38.049Z,16.43
2024-03-19T12:35:14.457Z,16.46
2024-03-19T12:37:45.112Z,16.50
2024-03-19T12:40:19.889Z,16.54
2024-03-19T12:42:50.615Z,16.59
2024-03-19T12:45:20.661Z,16.62
2024-03-19T12:47:50.790Z,16.67
2024-03-19T12:50:20.858Z,16.74
2024-03-19T12:52:52.533Z,16.83
2024-03-19T12:55:21.976Z,16.89
2024-03-19T12:57:51.792Z,16.95
2024-03-19T13:00:24.688Z,16.96
2024-03-19T13:02:55.980Z,16.96
2024-03-19T13:05:26.147Z,16.98
2024-03-19T13:07:57.023Z,16.96
2024-03-19T13:10:31.426Z,16.97
2024-03-19T13:13:01.758Z,16.99
2024-03-19T13:15:35.015Z,16.98
2024-03-19T13:18:07.875Z,17.00
2024-03-19T13:20:37.612Z,17.02
2024-03-19T13:23:11.874Z,17.04
2024-03-19T13:25:43.724Z,17.09
2024-03-19T13:28:13.130Z,17.13
2024-03-19T13:30:42.850Z,17.16
2024-03-19T13:33:12.261Z,17.14
2024-03-19T13:35:42.147Z,17.14
2024-03-19T13:38:14.105Z,17.13
2024-03-19T13:40:43.539Z,17.13
2024-03-19T13:43:12.866Z,17.12
2024-03-19T13:45:53.832Z,17.09
2024-03-19T13:48:29.968Z,17.05
2024-03-19T13:50:59.635Z,17.03
2024-03-19T13:53:29.276Z,17.04
2024-03-19T13:55:58.722Z,17.02
2024-03-19T13:58:28.281Z,17.00
2024-03-19T14:00:59.025Z,16.99
2024-03-19T14:03:31.810Z,17.00
2024-03-19T14:06:01.346Z,17.01
2024-03-19T14:08:31.038Z,16.99
2024-03-19T14:11:00.744Z,16.98
2024-03-19T14:13:30.672Z,16.97
2024-03-19T14:16:02.606Z,16.96
2024-03-19T14:18:35.982Z,16.95
2024-03-19T14:21:07.905Z,16.92
2024-03-19T14:23:42.003Z,16.91
2024-03-19T14:26:13.566Z,16.89
2024-03-19T14:28:42.998Z,16.88
2024-03-19T14:31:12.579Z,16.88
2024-03-19T14:33:44.361Z,16.89
2024-03-19T14:36:13.919Z,16.92
2024-03-19T14:38:43.395Z,16.95
2024-03-19T14:41:12.727Z,16.99
2024-03-19T14:43:46.519Z,17.02
2024-03-19T14:46:21.164Z,17.05
2024-03-19T14:48:50.532Z,17.07
2024-03-19T14:51:20.080Z,17.08
2024-03-19T14:53:51.729Z,17.07
2024-03-19T14:56:21.045Z,17.06
2024-03-19T14:58:50.451Z,17.06
2024-03-19T15:01:19.920Z,17.06
2024-03-19T15:03:52.330Z,17.07
2024-03-19T15:06:23.814Z,17.06
2024-03-19T15:08:53.354Z,17.06
2024-03-19T15:11:22.896Z,17.05
2024-03-19T15:13:54.757Z,17.02
2024-03-19T15:16:24.207Z,17.02
2024-03-19T15:18:54.556Z,17.00
2024-03-19T15:21:26.565Z,17.01
2024-03-19T15:23:56.021Z,17.01
2024-03-19T15:26:25.513Z,17.01
2024-03-19T15:28:54.920Z,17.01
2024-03-19T15:31:24.333Z,17.00
2024-03-19T15:33:53.717Z,17.01
2024-03-19T15:36:25.908Z,17.04
2024-03-19T15:38:55.414Z,17.07
2024-03-19T15:41:31.697Z,17.09
2024-03-19T15:44:01.206Z,17.13
2024-03-19T15:46:30.996Z,17.17
2024-03-19T15:49:00.366Z,17.19
2024-03-19T15:51:32.124Z,17.22
2024-03-19T15:54:01.822Z,17.26
2024-03-19T15:56:33.723Z,17.29
2024-03-19T15:59:03.102Z,17.30
2024-03-19T16:01:32.967Z,17.33
2024-03-19T16:04:02.447Z,17.34
2024-03-19T16:06:31.774Z,17.37
2024-03-19T16:09:01.262Z,17.37
2024-03-19T16:11:32.884Z,17.37
2024-03-19T16:14:02.281Z,17.34
2024-03-19T16:16:34.448Z,17.32
2024-03-19T16:19:04.618Z,17.30
2024-03-19T16:21:34.103Z,17.28
2024-03-19T16:24:04.138Z,17.28
2024-03-19T16:26:34.111Z,17.24
2024-03-19T16:29:03.742Z,17.21
2024-03-19T16:31:33.159Z,17.21
2024-03-19T16:34:04.848Z,17.22
2024-03-19T16:36:34.179Z,17.21
2024-03-19T16:39:04.859Z,17.21
2024-03-19T16:41:34.647Z,17.20
2024-03-19T16:44:06.167Z,17.17
2024-03-19T16:46:35.465Z,17.15
2024-03-19T16:49:05.137Z,17.11
2024-03-19T16:51:34.451Z,17.07
2024-03-19T16:54:03.883Z,17.01
2024-03-19T16:56:35.806Z,16.99
2024-03-19T16:59:05.724Z,16.94
2024-03-19T17:01:36.251Z,16.90
2024-03-19T17:04:06.535Z,16.86
2024-03-19T17:06:36.065Z,16.79
2024-03-19T17:09:09.238Z,16.74
2024-03-19T17:11:38.636Z,16.68
2024-03-19T17:14:14.447Z,16.62
2024-03-19T17:16:44.922Z,16.57
2024-03-19T17:19:17.724Z,16.52
2024-03-19T17:21:47.294Z,16.46
2024-03-19T17:24:17.434Z,16.40
2024-03-19T17:26:46.984Z,16.36
2024-03-19T17:29:17.986Z,16.33
2024-03-19T17:31:49.035Z,16.30
2024-03-19T17:34:19.885Z,16.26
2024-03-19T17:36:49.457Z,16.22
2024-03-19T17:39:19.181Z,16.18
2024-03-19T17:41:49.005Z,16.13
2024-03-19T17:44:20.442Z,16.08
2024-03-19T17:46:49.791Z,16.02
2024-03-19T17:49:22.858Z,15.96
2024-03-19T17:51:55.307Z,15.89
2024-03-19T17:54:24.893Z,15.83
2024-03-19T17:56:54.394Z,15.75
2024-03-19T17:59:26.842Z,15.66
2024-03-19T18:01:56.930Z,15.58
2024-03-19T18:04:26.372Z,15.50
2024-03-19T18:06:58.352Z,15.41
2024-03-19T18:09:27.718Z,15.32
2024-03-19T18:11:59.531Z,15.27
2024-03-19T18:14:28.893Z,15.22
2024-03-19T18:16:58.258Z,15.18
2024-03-19T18:19:30.150Z,15.14
2024-03-19T18:21:59.491Z,15.07
2024-03-19T18:24:32.368Z,15.03
2024-03-19T18:27:04.902Z,14.95
2024-03-19T18:29:34.430Z,14.89
2024-03-19T18:32:04.333Z,14.81
2024-03-19T18:34:33.744Z,14.74
2024-03-19T18:37:05.445Z,14.68
2024-03-19T18:39:39.107Z,14.61
2024-03-19T18:42:08.607Z,14.55
2024-03-19T18:44:40.608Z,14.52
2024-03-19T18:47:10.588Z,14.49
2024-03-19T18:49:43.486Z,14.47
2024-03-19T18:52:12.830Z,14.46
2024-03-19T18:54:42.204Z,14.43
2024-03-19T18:57:15.386Z,14.40
2024-03-19T18:59:47.192Z,14.38
2024-03-19T19:02:19.063Z,14.34
2024-03-19T19:04:48.518Z,14.28
2024-03-19T19:07:18.503Z,14.23
2024-03-19T19:09:47.966Z,14.16
2024-03-19T19:12:19.943Z,14.07
2024-03-19T19:14:49.310Z,14.00
2024-03-19T19:17:18.707Z,13.95
2024-03-19T19:19:48.121Z,13.92
2024-03-19T19:22:19.808Z,13.87
2024-03-19T19:24:49.217Z,13.84
2024-03-19T19:27:21.101Z,13.79
2024-03-19T19:29:55.094Z,13.75
2024-03-19T19:32:24.575Z,13.69
2024-03-19T19:34:56.788Z,13.63
2024-03-19T19:37:28.610Z,13.57
2024-03-19T19:39:58.656Z,13.50
2024-03-19T19:42:28.009Z,13.45
2024-03-19T19:44:58.180Z,13.42
2024-03-19T19:47:30.220Z,13.38
2024-03-19T19:50:00.871Z,13.36
2024-03-19T19:52:31.092Z,13.32
2024-03-19T19:55:00.883Z,13.29
2024-03-19T19:57:30.413Z,13.24
2024-03-19T19:59:59.764Z,13.19
2024-03-19T20:02:29.612Z,13.16
2024-03-19T20:04:59.250Z,13.17
2024-03-19T20:07:29.498Z,13.15
2024-03-19T20:10:01.530Z,13.15
2024-03-19T20:12:31.080Z,13.17
2024-03-19T20:15:01.200Z,13.17
2024-03-19T20:17:30.552Z,13.17
2024-03-19T20:20:01.053Z,13.16
2024-03-19T20:22:30.395Z,13.15
2024-03-19T20:24:59.751Z,13.10
2024-03-19T20:27:31.268Z,13.04
2024-03-19T20:30:05.840Z,13.00
2024-03-19T20:32:35.212Z,12.99
2024-03-19T20:35:06.968Z,12.96
2024-03-19T20:37:37.540Z,12.93
2024-03-19T20:40:14.405Z,12.92
2024-03-19T20:42:44.632Z,12.90
2024-03-19T20:45:16.622Z,12.88
2024-03-19T20:47:47.605Z,12.84
2024-03-19T20:50:17.476Z,12.80
2024-03-19T20:52:47.017Z,12.77
2024-03-19T20:55:16.806Z,12.73
2024-03-19T20:57:46.262Z,12.71
2024-03-19T21:00:18.117Z,12.70
2024-03-19T21:02:47.529Z,12.68
2024-03-19T21:05:17.534Z,12.66
2024-03-19T21:07:49.362Z,12.65
2024-03-19T21:10:18.725Z,12.60
2024-03-19T21:12:48.519Z,12.57
2024-03-19T21:15:17.881Z,12.51
2024-03-19T21:17:49.876Z,12.46
2024-03-19T21:20:19.486Z,12.42
2024-03-19T21:22:49.495Z,12.40
2024-03-19T21:25:22.219Z,12.38
2024-03-19T21:27:51.777Z,12.35
2024-03-19T21:30:21.852Z,12.33
2024-03-19T21:32:51.265Z,12.30
2024-03-19T21:35:21.023Z,12.26
2024-03-19T21:37:50.442Z,12.19
2024-03-19T21:40:20.413Z,12.13
2024-03-19T21:42:52.337Z,12.09
2024-03-19T21:45:26.354Z,12.05
2024-03-19T21:47:55.726Z,12.04
2024-03-19T21:50:26.244Z,12.04
2024-03-19T21:52:55.713Z,12.03
2024-03-19T21:55:25.161Z,12.02
2024-03-19T21:57:54.578Z,12.00
2024-03-19T22:00:30.843Z,11.99
2024-03-19T22:03:00.351Z,11.96
2024-03-19T22:05:30.129Z,11.92
2024-03-19T22:07:59.767Z,11.87
2024-03-19T22:10:30.150Z,11.84
2024-03-19T22:12:59.525Z,11.81
2024-03-19T22:15:28.821Z,11.80
2024-03-19T22:18:01.353Z,11.79
2024-03-19T22:20:31.064Z,11.76
2024-03-19T22:23:00.832Z,11.74
2024-03-19T22:25:30.191Z,11.69
2024-03-19T22:27:59.593Z,11.65
2024-03-19T22:30:28.921Z,11.61
2024-03-19T22:32:58.304Z,11.59
2024-03-19T22:35:27.792Z,11.59
2024-03-19T22:38:00.318Z,11.57
2024-03-19T22:40:32.040Z,11.57
2024-03-19T22:43:01.333Z,11.56
2024-03-19T22:45:33.026Z,11.52
2024-03-19T22:48:02.326Z,11.52
2024-03-19T22:50:33.978Z,11.50
2024-03-19T22:53:05.852Z,11.47
2024-03-19T22:55:35.207Z,11.46
2024-03-19T22:58:04.793Z,11.44
2024-03-19T23:00:35.590Z,11.42
2024-03-19T23:03:05.958Z,11.40
2024-03-19T23:05:35.343Z,11.39
2024-03-19T23:08:05.509Z,11.37
2024-03-19T23:10:39.243Z,11.34
2024-03-19T23:13:08.713Z,11.32
2024-03-19T23:15:40.764Z,11.29
2024-03-19T23:18:12.441Z,11.28
2024-03-19T23:20:41.863Z,11.29
2024-03-19T23:23:11.330Z,11.27
2024-03-19T23:25:43.165Z,11.26
2024-03-19T23:28:14.646Z,11.23
2024-03-19T23:30:44.027Z,11.20
2024-03-19T23:33:15.543Z,11.17
2024-03-19T23:35:44.885Z,11.14
2024-03-19T23:38:14.398Z,11.14
2024-03-19T23:40:46.692Z,11.14
2024-03-19T23:43:16.040Z,11.15
2024-03-19T23:45:45.657Z,11.13
2024-03-19T23:48:14.978Z,11.13
2024-03-19T23:50:44.588Z,11.13
2024-03-19T23:53:16.437Z,11.10
2024-03-19T23:55:45.839Z,11.07
2024-03-19T23:58:17.290Z,11.03
